Terminal Aerodrome Forecast
Issued by NWS Cleveland, OH

Home | Current Version | Previous Version | Graphics & Text | Print | Product List | Glossary On
Versions: 1 2 3 4 5 6 7 8 9 10 11 12 13 14 15 16 17
000
FTUS41 KCLE 231540 AAB
TAFMFD
TAF AMD
KMFD 231540Z 2316/2412 23012KT 5SM -SHRA OVC025
      TEMPO 2316/2319 2SM SHRA OVC010
     FM232100 24010KT 5SM -SHRA OVC018
     FM240000 27007KT P6SM OVC018
     FM240500 29006KT P6SM SCT022=

USA.gov is the U.S. government's official web portal to all federal, state and local government web resources and services.